Airfield :
LOGIN :

Register | Disclaimer

   EN    FR    IT 

 










Legend :    VFR   Marginal VFR   IFR   Intensive IFR   Very Intensive IFR
Visi :
Ceiling :
>= 8 km
>= 3000ft
5 to 8 km
1000 to 3000 ft
1500m to 5 km
500 to 1000 ft
800 to 1500m
200 to 500 ft
< 800m
< 200 ft
Symbols :   Thunderstorms  Fog  Heavy snow  Heavy precipitations  Wind > 20 kt
SIGMETs :     Misc.  Thunderstorms  Icing  Turbulence  Mountain Waves  Volcanic Ashes







- Airport Elevation : 870 ft
- IATA code : ETZ
- Download approach charts


LFJL - Metz Nancy Lorraine

CURRENT METAR :
  • 220600Z AUTO 25014KT 9999 -RADZ BKN010 OVC014 10/09 Q1009 TEMPO 4000 -RADZ

EXPIRED METARs :
  • 220530Z AUTO 24013KT 9999 OVC009 10/09 Q1009 TEMPO 4000 -RADZ
  • 220500Z AUTO 25013KT 9999 OVC009 10/09 Q1009 TEMPO 26015G25KT 1200 RADZ OVC003
  • 220430Z AUTO 25013KT 9999 OVC008 10/09 Q1009 TEMPO 26015G25KT 1200 RADZ OVC003
  • 220400Z AUTO 25012KT 6000 OVC007 09/09 Q1009 TEMPO 26015G25KT 1200 RADZ OVC002
  • 220330Z AUTO 24013KT 9999 OVC008 08/08 Q1009 TEMPO 26015G25KT 1200 RADZ OVC002

TAF TAF LFJL
Valid from the 22 at 06:00 until the 23 at 06:00 UTC


220500Z 2206/2306 24012KT 9999 SCT008 BKN012
TEMPO 2206/2211 4000 -RADZ BKN008
BECMG 2211/2213 32008KT BKN030
TEMPO 2211/2215 4000 RA
BECMG 2222/2224 24008KT
TEMPO 2215/2306 BKN014
No reported NOTAMs for that airfield.



MET'MAP, your aeronautical weather chart ! - Copyright ORBIFLY December 2007 - Disclaimer

ORBIFLY MET'MAP TEAM :

Programming & Development : Alexandra Zaïnal
Concept & Development : Baudouin d'Aumeries
Co-Development & Prog : Marc-Olivier Méhu
Technical & hardware support : Manuel Goepfert

Contact : metmap@orbifly.com




SOURCES & CREDITS :

   NOAA